createdAt,value
2022-11-27T00:01:36.506Z,94462.75
2022-11-27T00:04:06.478Z,94450.94
2022-11-27T00:06:35.930Z,94457.66
2022-11-27T00:09:05.289Z,94461.88
2022-11-27T00:11:33.659Z,94456.34
2022-11-27T00:14:02.154Z,94454.03
2022-11-27T00:16:30.191Z,94453.34
2022-11-27T00:18:59.174Z,94461.38
2022-11-27T00:21:29.688Z,94458.41
2022-11-27T00:23:59.730Z,94456.94
2022-11-27T00:26:33.062Z,94460.78
2022-11-27T00:29:04.333Z,94461.81
2022-11-27T00:31:34.280Z,94460.34
2022-11-27T00:34:05.301Z,94466.09
2022-11-27T00:36:34.921Z,94467.75
2022-11-27T00:39:03.945Z,94467.81
2022-11-27T00:41:32.223Z,94475.91
2022-11-27T00:44:00.159Z,94460.22
2022-11-27T00:46:30.180Z,94464.34
2022-11-27T00:48:59.980Z,94467.97
2022-11-27T00:51:28.903Z,94467.50
2022-11-27T00:53:57.399Z,94466.84
2022-11-27T00:56:28.183Z,94472.09
2022-11-27T00:58:56.655Z,94459.63
2022-11-27T01:01:27.920Z,94465.03
2022-11-27T01:04:00.661Z,94458.84
2022-11-27T01:06:30.136Z,94456.84
2022-11-27T01:08:59.193Z,94445.69
2022-11-27T01:11:30.915Z,94440.94
2022-11-27T01:14:02.259Z,94439.31
2022-11-27T01:16:32.014Z,94438.00
2022-11-27T01:19:02.163Z,94439.13
2022-11-27T01:21:32.697Z,94436.00
2022-11-27T01:24:02.062Z,94436.16
2022-11-27T01:26:32.250Z,94439.28
2022-11-27T01:29:00.740Z,94438.66
2022-11-27T01:31:32.261Z,94438.97
2022-11-27T01:34:07.881Z,94435.53
2022-11-27T01:36:39.115Z,94433.59
2022-11-27T01:39:07.339Z,94429.97
2022-11-27T01:41:40.132Z,94422.59
2022-11-27T01:44:26.360Z,94424.56
2022-11-27T01:47:10.821Z,94427.38
2022-11-27T01:49:43.037Z,94424.09
2022-11-27T01:52:27.975Z,94425.41
2022-11-27T01:55:04.728Z,94421.28
2022-11-27T01:57:41.832Z,94422.94
2022-11-27T02:00:13.784Z,94426.19
2022-11-27T02:02:43.671Z,94421.28
2022-11-27T02:05:17.498Z,94424.88
2022-11-27T02:07:46.277Z,94425.84
2022-11-27T02:10:14.933Z,94422.28
2022-11-27T02:12:54.558Z,94424.56
2022-11-27T02:15:46.723Z,94426.38
2022-11-27T02:18:23.043Z,94426.66
2022-11-27T02:21:02.378Z,94435.03
2022-11-27T02:23:58.842Z,94431.25
2022-11-27T02:26:38.788Z,94431.41
2022-11-27T02:29:13.524Z,94434.38
2022-11-27T02:32:18.785Z,94432.41
2022-11-27T02:34:50.273Z,94430.53
2022-11-27T02:37:36.933Z,94428.75
2022-11-27T02:40:14.176Z,94421.19
2022-11-27T02:43:08.940Z,94427.56
2022-11-27T02:45:46.876Z,94427.72
2022-11-27T02:48:19.147Z,94432.50
2022-11-27T02:50:49.879Z,94432.03
2022-11-27T02:53:26.394Z,94424.31
2022-11-27T02:55:57.126Z,94418.69
2022-11-27T03:01:32.617Z,94423.94
2022-11-27T03:04:06.823Z,94427.19
2022-11-27T03:06:42.115Z,94419.91
2022-11-27T03:09:25.497Z,94411.94
2022-11-27T03:11:53.840Z,94424.22
2022-11-27T03:14:24.746Z,94425.94
2022-11-27T03:17:18.209Z,94425.94
2022-11-27T03:19:53.076Z,94427.03
2022-11-27T03:22:21.253Z,94421.66
2022-11-27T03:24:50.295Z,94427.56
2022-11-27T03:27:24.254Z,94424.53
2022-11-27T03:30:02.424Z,94423.53
2022-11-27T03:32:32.091Z,94436.25
2022-11-27T03:35:01.451Z,94432.50
2022-11-27T03:37:29.631Z,94430.19
2022-11-27T03:39:57.633Z,94419.47
2022-11-27T03:42:33.830Z,94418.66
2022-11-27T03:45:15.193Z,94422.94
2022-11-27T03:48:16.799Z,94426.91
2022-11-27T03:51:11.724Z,94425.91
2022-11-27T03:53:42.615Z,94419.50
2022-11-27T03:56:48.787Z,94416.66
2022-11-27T03:59:29.441Z,94416.19
2022-11-27T04:01:57.449Z,94424.22
2022-11-27T04:04:25.920Z,94416.16
2022-11-27T04:06:54.033Z,94405.44
2022-11-27T04:09:21.948Z,94410.53
2022-11-27T04:11:49.920Z,94412.50
2022-11-27T04:14:17.975Z,94409.50
2022-11-27T04:16:46.384Z,94415.66
2022-11-27T04:19:14.388Z,94409.38
2022-11-27T04:21:42.468Z,94403.47
2022-11-27T04:24:10.490Z,94414.81
2022-11-27T04:26:38.364Z,94407.97
2022-11-27T04:29:06.428Z,94410.75
2022-11-27T04:31:34.398Z,94407.22
2022-11-27T04:34:02.595Z,94405.41
2022-11-27T04:36:34.709Z,94408.09
2022-11-27T04:39:05.644Z,94409.03
2022-11-27T04:41:33.681Z,94411.13
2022-11-27T04:44:01.536Z,94409.84
2022-11-27T04:46:29.554Z,94429.13
2022-11-27T04:48:57.647Z,94431.75
2022-11-27T04:51:25.479Z,94426.13
2022-11-27T04:53:53.345Z,94419.38
2022-11-27T04:56:21.518Z,94420.31
2022-11-27T04:58:49.394Z,94424.09
2022-11-27T05:01:17.541Z,94420.97
2022-11-27T05:03:47.675Z,94438.63
2022-11-27T05:06:16.032Z,94422.22
2022-11-27T05:08:44.001Z,94421.59
2022-11-27T05:11:13.712Z,94429.59
2022-11-27T05:13:42.774Z,94438.81
2022-11-27T05:16:11.114Z,94432.84
2022-11-27T05:18:39.087Z,94429.53
2022-11-27T05:21:08.464Z,94434.84
2022-11-27T05:23:36.193Z,94420.31
2022-11-27T05:26:04.155Z,94441.59
2022-11-27T05:28:32.139Z,94438.06
2022-11-27T05:31:00.134Z,94435.13
2022-11-27T05:33:28.125Z,94447.53
2022-11-27T05:35:56.138Z,94444.56
2022-11-27T05:38:23.909Z,94450.22
2022-11-27T05:40:51.957Z,94443.03
2022-11-27T05:43:20.015Z,94450.09
2022-11-27T05:45:47.826Z,94435.31
2022-11-27T05:48:15.773Z,94439.78
2022-11-27T05:50:43.885Z,94447.47
2022-11-27T05:53:11.688Z,94450.44
2022-11-27T05:55:39.756Z,94458.31
2022-11-27T05:58:07.676Z,94446.28
2022-11-27T06:00:35.582Z,94444.13
2022-11-27T06:03:03.749Z,94440.50
2022-11-27T06:05:31.884Z,94444.34
2022-11-27T06:07:59.808Z,94436.88
2022-11-27T06:10:27.746Z,94446.78
2022-11-27T06:12:55.760Z,94449.50
2022-11-27T06:15:23.690Z,94446.19
2022-11-27T06:17:51.810Z,94445.81
2022-11-27T06:20:20.679Z,94449.09
2022-11-27T06:22:48.540Z,94446.25
2022-11-27T06:25:16.996Z,94435.31
2022-11-27T06:27:45.036Z,94448.34
2022-11-27T06:30:13.542Z,94457.38
2022-11-27T06:32:41.822Z,94445.09
2022-11-27T06:35:10.224Z,94458.28
2022-11-27T06:37:38.132Z,94457.38
2022-11-27T06:40:06.948Z,94456.25
2022-11-27T06:42:34.836Z,94445.56
2022-11-27T06:45:03.001Z,94448.84
2022-11-27T06:47:30.806Z,94448.19
2022-11-27T06:49:58.714Z,94445.13
2022-11-27T06:52:26.615Z,94449.34
2022-11-27T06:54:54.687Z,94456.47
2022-11-27T06:57:22.691Z,94452.44
2022-11-27T06:59:50.610Z,94447.94
2022-11-27T07:02:18.648Z,94449.59
2022-11-27T07:04:46.661Z,94446.03
2022-11-27T07:07:17.265Z,94449.81
2022-11-27T07:09:45.434Z,94436.75
2022-11-27T07:12:13.537Z,94443.94
2022-11-27T07:14:42.498Z,94446.59
2022-11-27T07:17:10.589Z,94415.47
2022-11-27T07:19:38.611Z,94446.16
2022-11-27T07:22:06.768Z,94445.44
2022-11-27T07:24:35.964Z,94439.97
2022-11-27T07:27:04.132Z,94446.66
2022-11-27T07:29:32.157Z,94444.31
2022-11-27T07:32:00.560Z,94442.59
2022-11-27T07:34:29.100Z,94445.47
2022-11-27T07:36:57.030Z,94441.19
2022-11-27T07:39:39.749Z,94436.47
2022-11-27T07:45:01.598Z,94437.03
2022-11-27T07:47:30.843Z,94435.97
2022-11-27T07:50:00.643Z,94430.63
2022-11-27T07:52:29.055Z,94433.59
2022-11-27T07:54:57.396Z,94438.41
2022-11-27T07:57:25.384Z,94428.97
2022-11-27T07:59:53.317Z,94432.75
2022-11-27T08:02:21.406Z,94425.94
2022-11-27T08:04:49.721Z,94424.31
2022-11-27T08:07:18.220Z,94426.53
2022-11-27T08:09:46.243Z,94421.44
2022-11-27T08:12:14.261Z,94428.13
2022-11-27T08:14:42.539Z,94427.81
2022-11-27T08:17:16.191Z,94423.81
2022-11-27T08:19:44.237Z,94428.44
2022-11-27T08:22:17.108Z,94431.78
2022-11-27T08:24:46.783Z,94428.69
2022-11-27T08:27:16.516Z,94426.63
2022-11-27T08:29:44.745Z,94433.56
2022-11-27T08:32:13.251Z,94431.53
2022-11-27T08:34:41.842Z,94432.09
2022-11-27T08:37:10.034Z,94419.25
2022-11-27T08:39:38.002Z,94413.91
2022-11-27T08:42:06.371Z,94417.00
2022-11-27T08:44:34.360Z,94414.63
2022-11-27T08:47:02.891Z,94418.47
2022-11-27T08:49:31.509Z,94418.78
2022-11-27T08:51:59.977Z,94404.25
2022-11-27T08:54:28.129Z,94409.47
2022-11-27T08:56:55.930Z,94403.31
2022-11-27T08:59:24.057Z,94393.69
2022-11-27T09:01:52.151Z,94393.75
2022-11-27T09:04:20.931Z,94384.41
2022-11-27T09:06:51.028Z,94388.47
2022-11-27T09:09:21.221Z,94392.19
2022-11-27T09:11:49.959Z,94392.41
2022-11-27T09:14:18.223Z,94384.94
2022-11-27T09:16:46.825Z,94382.34
2022-11-27T09:19:14.920Z,94384.56
2022-11-27T09:21:43.334Z,94375.22
2022-11-27T09:24:11.855Z,94383.75
2022-11-27T09:26:40.500Z,94390.09
2022-11-27T09:29:08.931Z,94373.38
2022-11-27T09:31:37.315Z,94378.06
2022-11-27T09:34:06.599Z,94364.63
2022-11-27T09:36:35.082Z,94357.25
2022-11-27T09:39:04.237Z,94347.25
2022-11-27T09:41:44.894Z,94342.59
2022-11-27T09:44:28.104Z,94358.25
2022-11-27T09:47:00.032Z,94358.69
2022-11-27T09:49:37.035Z,94346.22
2022-11-27T09:52:14.591Z,94351.50
2022-11-27T09:55:11.736Z,94346.56
2022-11-27T09:57:42.216Z,94338.19
2022-11-27T10:00:20.058Z,94334.13
2022-11-27T10:02:48.707Z,94333.50
2022-11-27T10:05:22.005Z,94311.78
2022-11-27T10:08:09.605Z,94324.22
2022-11-27T10:11:01.987Z,94316.16
2022-11-27T10:14:01.406Z,94312.63
2022-11-27T10:16:39.024Z,94307.25
2022-11-27T10:19:39.792Z,94309.50
2022-11-27T10:22:45.014Z,94310.78
2022-11-27T10:25:26.520Z,94315.22
2022-11-27T10:28:27.714Z,94303.41
2022-11-27T10:31:14.233Z,94298.91
2022-11-27T10:33:54.114Z,94288.09
2022-11-27T10:36:36.569Z,94292.59
2022-11-27T10:39:11.826Z,94286.44
2022-11-27T10:41:50.761Z,94283.94
2022-11-27T10:44:36.631Z,94280.31
2022-11-27T10:47:08.450Z,94281.50
2022-11-27T10:49:40.828Z,94277.03
2022-11-27T10:52:15.271Z,94277.03
2022-11-27T10:54:46.297Z,94269.00
2022-11-27T10:57:35.994Z,94273.63
2022-11-27T11:00:19.197Z,94270.75
2022-11-27T11:02:48.293Z,94268.03
2022-11-27T11:08:20.775Z,94275.91
2022-11-27T11:10:58.097Z,94262.34
2022-11-27T11:13:28.924Z,94262.34
2022-11-27T11:16:05.388Z,94259.63
2022-11-27T11:18:50.886Z,94261.81
2022-11-27T11:21:40.855Z,94250.00
2022-11-27T11:24:26.654Z,94258.69
2022-11-27T11:27:01.649Z,94248.63
2022-11-27T11:29:41.685Z,94242.88
2022-11-27T11:32:37.951Z,94253.53
2022-11-27T11:35:27.932Z,94245.28
2022-11-27T11:37:57.771Z,94240.63
2022-11-27T11:40:31.588Z,94242.91
2022-11-27T11:43:02.970Z,94249.72
2022-11-27T11:45:34.100Z,94243.78
2022-11-27T11:48:20.837Z,94239.47
2022-11-27T11:50:56.238Z,94240.78
2022-11-27T11:53:47.726Z,94226.78
2022-11-27T11:56:33.941Z,94246.13
2022-11-27T11:59:16.953Z,94239.56
2022-11-27T12:02:18.688Z,94233.47
2022-11-27T12:04:58.747Z,94234.28
2022-11-27T12:07:51.995Z,94234.34
2022-11-27T12:10:35.692Z,94220.47
2022-11-27T12:13:33.190Z,94217.75
2022-11-27T12:16:18.486Z,94220.59
2022-11-27T12:19:05.700Z,94224.66
2022-11-27T12:21:40.093Z,94210.66
2022-11-27T12:24:08.585Z,94206.59
2022-11-27T12:27:07.386Z,94210.63
2022-11-27T12:29:54.226Z,94216.31
2022-11-27T12:32:50.891Z,94205.34
2022-11-27T12:35:32.801Z,94212.88
2022-11-27T12:38:19.499Z,94206.75
2022-11-27T12:41:24.895Z,94207.44
2022-11-27T12:44:00.608Z,94206.41
2022-11-27T12:47:01.267Z,94209.88
2022-11-27T12:49:37.924Z,94210.91
2022-11-27T12:52:19.281Z,94208.66
2022-11-27T12:55:14.400Z,94205.38
2022-11-27T12:57:51.770Z,94209.28
2022-11-27T13:00:21.792Z,94208.03
2022-11-27T13:02:56.672Z,94203.34
2022-11-27T13:05:30.667Z,94213.34
2022-11-27T13:08:06.628Z,94208.25
2022-11-27T13:10:59.026Z,94213.97
2022-11-27T13:13:36.076Z,94205.59
2022-11-27T13:16:33.592Z,94202.78
2022-11-27T13:19:12.924Z,94210.50
2022-11-27T13:21:42.506Z,94206.63
2022-11-27T13:24:13.809Z,94201.13
2022-11-27T13:27:01.166Z,94204.81
2022-11-27T13:29:44.591Z,94198.69
2022-11-27T13:32:31.713Z,94203.34
2022-11-27T13:35:04.066Z,94207.03
2022-11-27T13:37:39.084Z,94200.50
2022-11-27T13:40:12.951Z,94197.25
2022-11-27T13:42:45.849Z,94204.75
2022-11-27T13:45:27.282Z,94205.94
2022-11-27T13:47:58.548Z,94201.66
2022-11-27T13:50:31.034Z,94213.63
2022-11-27T13:53:06.294Z,94203.25
2022-11-27T13:55:40.436Z,94210.41
2022-11-27T13:58:09.165Z,94212.06
2022-11-27T14:00:43.981Z,94201.88
2022-11-27T14:03:29.641Z,94208.53
2022-11-27T14:05:58.420Z,94202.44
2022-11-27T14:08:33.845Z,94213.38
2022-11-27T14:11:09.191Z,94210.16
2022-11-27T14:13:49.322Z,94209.72
2022-11-27T14:16:37.608Z,94209.72
2022-11-27T14:19:33.506Z,94208.91
2022-11-27T14:22:32.665Z,94205.28
2022-11-27T14:25:01.179Z,94203.31
2022-11-27T14:27:36.154Z,94203.72
2022-11-27T14:30:35.556Z,94209.59
2022-11-27T14:33:05.383Z,94202.91
2022-11-27T14:35:36.816Z,94206.16
2022-11-27T14:38:15.840Z,94197.66
2022-11-27T14:40:45.133Z,94198.06
2022-11-27T14:43:19.301Z,94197.88
2022-11-27T14:46:01.646Z,94195.03
2022-11-27T14:48:44.428Z,94190.75
2022-11-27T14:51:21.503Z,94194.22
2022-11-27T14:53:54.317Z,94191.56
2022-11-27T14:56:23.270Z,94184.81
2022-11-27T14:58:52.938Z,94191.16
2022-11-27T15:01:33.084Z,94196.25
2022-11-27T15:04:01.957Z,94198.06
2022-11-27T15:06:34.270Z,94198.28
2022-11-27T15:09:30.282Z,94183.63
2022-11-27T15:11:56.905Z,94182.59
2022-11-27T15:14:28.971Z,94186.06
2022-11-27T15:16:58.581Z,94186.88
2022-11-27T15:19:29.931Z,94185.25
2022-11-27T15:21:58.862Z,94191.56
2022-11-27T15:24:34.515Z,94194.19
2022-11-27T15:27:21.017Z,94184.84
2022-11-27T15:29:55.198Z,94193.81
2022-11-27T15:32:26.316Z,94194.19
2022-11-27T15:34:55.215Z,94196.03
2022-11-27T15:37:37.986Z,94193.81
2022-11-27T15:40:39.010Z,94187.50
2022-11-27T15:43:15.740Z,94192.78
2022-11-27T15:45:44.970Z,94189.72
2022-11-27T15:48:17.197Z,94194.81
2022-11-27T15:50:51.430Z,94196.41
2022-11-27T15:53:20.604Z,94199.66
2022-11-27T15:55:48.999Z,94186.88
2022-11-27T15:58:17.701Z,94194.38
2022-11-27T16:00:46.159Z,94180.16
2022-11-27T16:03:14.743Z,94188.28
2022-11-27T16:05:43.505Z,94186.06
2022-11-27T16:08:12.044Z,94184.41
2022-11-27T16:10:42.140Z,94177.72
2022-11-27T16:13:10.772Z,94176.69
2022-11-27T16:15:40.160Z,94178.50
2022-11-27T16:18:08.873Z,94181.16
2022-11-27T16:20:37.325Z,94186.19
2022-11-27T16:23:06.147Z,94180.53
2022-11-27T16:25:34.446Z,94181.75
2022-11-27T16:28:03.501Z,94187.03
2022-11-27T16:30:32.346Z,94187.84
2022-11-27T16:33:00.775Z,94186.97
2022-11-27T16:35:29.379Z,94181.94
2022-11-27T16:37:57.971Z,94186.41
2022-11-27T16:40:27.718Z,94190.25
2022-11-27T16:42:56.249Z,94195.34
2022-11-27T16:45:24.888Z,94189.88
2022-11-27T16:47:55.854Z,94183.16
2022-11-27T16:50:26.937Z,94182.75
2022-11-27T16:52:55.989Z,94182.31
2022-11-27T16:55:26.463Z,94186.97
2022-11-27T16:57:55.630Z,94183.31
2022-11-27T17:00:23.858Z,94187.75
2022-11-27T17:02:52.237Z,94178.81
2022-11-27T17:05:21.012Z,94187.13
2022-11-27T17:07:49.481Z,94193.63
2022-11-27T17:10:18.235Z,94194.84
2022-11-27T17:12:46.902Z,94196.28
2022-11-27T17:15:15.404Z,94184.09
2022-11-27T17:17:44.733Z,94179.97
2022-11-27T17:20:13.461Z,94181.81
2022-11-27T17:22:42.332Z,94180.84
2022-11-27T17:25:11.489Z,94175.13
2022-11-27T17:27:39.896Z,94176.34
2022-11-27T17:30:09.960Z,94174.09
2022-11-27T17:32:38.519Z,94170.81
2022-11-27T17:35:07.292Z,94174.03
2022-11-27T17:37:36.542Z,94178.34
2022-11-27T17:40:05.820Z,94174.69
2022-11-27T17:42:34.474Z,94169.63
2022-11-27T17:45:02.913Z,94164.75
2022-11-27T17:47:31.652Z,94164.56
2022-11-27T17:50:00.686Z,94157.59
2022-11-27T17:52:29.533Z,94167.75
2022-11-27T17:54:58.324Z,94169.16
2022-11-27T17:57:27.211Z,94166.94
2022-11-27T17:59:55.526Z,94167.16
2022-11-27T18:02:24.082Z,94163.66
2022-11-27T18:04:52.744Z,94166.44
2022-11-27T18:07:21.288Z,94167.28
2022-11-27T18:09:54.547Z,94167.59
2022-11-27T18:12:23.466Z,94164.41
2022-11-27T18:14:57.915Z,94161.41
2022-11-27T18:17:30.187Z,94160.16
2022-11-27T18:19:59.329Z,94153.03
2022-11-27T18:22:28.057Z,94163.66
2022-11-27T18:24:56.717Z,94163.47
2022-11-27T18:27:25.175Z,94158.78
2022-11-27T18:29:53.643Z,94163.88
2022-11-27T18:32:23.237Z,94156.38
2022-11-27T18:34:54.840Z,94157.19
2022-11-27T18:37:23.958Z,94162.06
2022-11-27T18:39:52.274Z,94158.97
2022-11-27T18:42:21.218Z,94155.88
2022-11-27T18:44:49.719Z,94155.94
2022-11-27T18:47:18.269Z,94156.16
2022-11-27T18:49:48.314Z,94155.09
2022-11-27T18:52:17.812Z,94159.19
2022-11-27T18:54:46.739Z,94156.94
2022-11-27T18:57:15.384Z,94148.22
2022-11-27T18:59:44.377Z,94147.19
2022-11-27T19:02:13.636Z,94146.78
2022-11-27T19:04:44.639Z,94144.97
2022-11-27T19:07:13.558Z,94143.94
2022-11-27T19:09:42.389Z,94141.53
2022-11-27T19:12:11.239Z,94142.75
2022-11-27T19:14:40.570Z,94135.03
2022-11-27T19:17:09.828Z,94127.06
2022-11-27T19:19:54.984Z,94133.19
2022-11-27T19:22:26.319Z,94144.31
2022-11-27T19:24:57.428Z,94141.84
2022-11-27T19:27:26.123Z,94147.41
2022-11-27T19:29:54.906Z,94144.78
2022-11-27T19:32:24.578Z,94141.97
2022-11-27T19:34:53.154Z,94140.25
2022-11-27T19:37:34.006Z,94139.06
2022-11-27T19:40:06.795Z,94145.69
2022-11-27T19:42:35.891Z,94131.66
2022-11-27T19:45:04.766Z,94142.13
2022-11-27T19:47:34.428Z,94142.63
2022-11-27T19:50:03.353Z,94149.13
2022-11-27T19:52:32.817Z,94147.47
2022-11-27T19:55:01.151Z,94154.25
2022-11-27T19:57:29.999Z,94146.22
2022-11-27T19:59:59.725Z,94152.34
2022-11-27T20:02:30.303Z,94148.28
2022-11-27T20:04:59.742Z,94154.59
2022-11-27T20:07:28.300Z,94155.13
2022-11-27T20:09:56.851Z,94150.41
2022-11-27T20:12:26.093Z,94141.53
2022-11-27T20:14:54.425Z,94141.22
2022-11-27T20:17:22.927Z,94140.81
2022-11-27T20:19:52.593Z,94143.09
2022-11-27T20:22:21.169Z,94137.22
2022-11-27T20:25:17.234Z,94137.22
2022-11-27T20:27:39.548Z,94137.66
2022-11-27T20:30:08.832Z,94135.41
2022-11-27T20:32:37.567Z,94137.66
2022-11-27T20:35:06.289Z,94138.47
2022-11-27T20:37:35.351Z,94134.63
2022-11-27T20:40:05.000Z,94135.22
2022-11-27T20:42:34.538Z,94136.03
2022-11-27T20:45:05.331Z,94125.72
2022-11-27T20:47:35.489Z,94131.63
2022-11-27T20:50:06.373Z,94127.53
2022-11-27T20:52:35.024Z,94122.25
2022-11-27T20:55:03.639Z,94131.59
2022-11-27T20:57:31.948Z,94123.25
2022-11-27T20:59:59.872Z,94125.06
2022-11-27T21:02:28.198Z,94128.34
2022-11-27T21:04:57.440Z,94127.28
2022-11-27T21:07:25.699Z,94127.53
2022-11-27T21:09:54.938Z,94130.72
2022-11-27T21:12:23.121Z,94128.50
2022-11-27T21:14:52.289Z,94127.25
2022-11-27T21:17:20.297Z,94127.25
2022-11-27T21:19:49.479Z,94118.72
2022-11-27T21:22:18.152Z,94120.75
2022-11-27T21:24:46.409Z,94126.00
2022-11-27T21:27:14.540Z,94119.31
2022-11-27T21:29:42.781Z,94116.69
2022-11-27T21:32:11.838Z,94119.31
2022-11-27T21:34:40.787Z,94114.03
2022-11-27T21:37:09.870Z,94110.59
2022-11-27T21:39:38.853Z,94113.19
2022-11-27T21:42:07.367Z,94108.31
2022-11-27T21:44:35.875Z,94111.34
2022-11-27T21:47:06.262Z,94111.97
2022-11-27T21:49:34.441Z,94106.88
2022-11-27T21:52:02.373Z,94105.06
2022-11-27T21:54:34.137Z,94108.50
2022-11-27T21:57:02.519Z,94103.25
2022-11-27T21:59:30.688Z,94103.84
2022-11-27T22:01:58.917Z,94098.56
2022-11-27T22:04:27.199Z,94098.38
2022-11-27T22:06:55.324Z,94093.91
2022-11-27T22:09:23.371Z,94087.22
2022-11-27T22:11:52.661Z,94092.19
2022-11-27T22:14:21.108Z,94092.78
2022-11-27T22:16:49.371Z,94095.47
2022-11-27T22:19:17.689Z,94096.72
2022-11-27T22:21:45.749Z,94087.00
2022-11-27T22:24:19.252Z,94094.91
2022-11-27T22:26:51.442Z,94082.97
2022-11-27T22:29:19.951Z,94086.81
2022-11-27T22:31:47.912Z,94081.94
2022-11-27T22:34:16.769Z,94080.22
2022-11-27T22:36:45.785Z,94076.97
2022-11-27T22:39:14.328Z,94070.69
2022-11-27T22:41:43.049Z,94075.38
2022-11-27T22:44:23.156Z,94067.22
2022-11-27T22:46:51.377Z,94071.72
2022-11-27T22:49:19.543Z,94067.81
2022-11-27T22:51:48.160Z,94071.06
2022-11-27T22:54:20.095Z,94068.06
2022-11-27T22:56:48.156Z,94055.25
2022-11-27T22:59:34.097Z,94059.53
2022-11-27T23:02:06.609Z,94056.44
2022-11-27T23:04:36.303Z,94063.31
2022-11-27T23:07:05.130Z,94066.56
2022-11-27T23:09:34.032Z,94071.28
2022-11-27T23:12:02.149Z,94068.81
2022-11-27T23:14:30.374Z,94063.13
2022-11-27T23:16:59.044Z,94047.09
2022-11-27T23:19:27.108Z,94048.53
2022-11-27T23:21:55.333Z,94047.09
2022-11-27T23:24:23.185Z,94044.66
2022-11-27T23:26:51.279Z,94047.47
2022-11-27T23:29:19.229Z,94041.75
2022-11-27T23:31:47.373Z,94053.69
2022-11-27T23:34:16.291Z,94046.03
2022-11-27T23:36:44.720Z,94048.50
2022-11-27T23:39:14.377Z,94043.25
2022-11-27T23:41:42.776Z,94043.44
2022-11-27T23:44:11.206Z,94040.81
2022-11-27T23:46:39.627Z,94041.25
2022-11-27T23:49:07.753Z,94039.22
2022-11-27T23:51:36.185Z,94039.22
2022-11-27T23:54:09.424Z,94038.78
2022-11-27T23:56:38.771Z,94037.75
2022-11-27T23:59:06.681Z,94031.66
